Meamina — 2AMK7 — position and weather

sailwx.info

Track history (hours):
 
Tides and Currents Weather Stations Pressure Air Temp Water Temp Dewpoint Dewpoint Depression Visibility Wind Speed Wind Dir Waves Ship Positions

Meamina

Last reported at 2017-Jun-26 15:55 UTC. Time now 2017-Jun-28 05:24 UTC.
Position N 41°13' E 001°44'.

Length 60 m; draft 3.2 m.

Type: Ship. MMSI: 235061022.

Date/timePositionNaut miles runAvg speedWind from/ knotsBaromVisibWave heightAir tempDewpointWater temp
2017-Jun-26 15:55N 41°13' E 001°44'0 0.0
2017-Jun-26 13:51N 41°13' E 001°44'0 0.0
2017-Jun-26 13:27N 41°13' E 001°44'0 0.0
2017-Jun-26 11:45N 41°13' E 001°44'0 0.0
2017-Jun-26 11:15N 41°13' E 001°44'0 0.0
2017-Jun-26 10:57N 41°13' E 001°44'0 0.0
2017-Jun-26 10:03N 41°13' E 001°44'0 0.0
2017-Jun-26 09:51N 41°13' E 001°44'0 0.0
2017-Jun-26 09:30N 41°13' E 001°44'0 0.0
2017-Jun-26 02:03N 41°13' E 001°44'0 0.0
2017-Jun-26 01:39N 41°13' E 001°44'0 0.0
2017-Jun-26 01:21N 41°13' E 001°44'0 0.0
2017-Jun-25 21:57N 41°13' E 001°44'0 0.0
2017-Jun-25 02:51N 41°13' E 001°44'0 0.0
2017-Jun-24 16:45N 41°13' E 001°44'0 0.0
2017-Jun-24 16:15N 41°13' E 001°44'0 0.0
2017-Jun-24 15:51N 41°13' E 001°44'0 0.0
2017-Jun-24 15:27N 41°13' E 001°44'0 0.0
2017-Jun-24 07:15N 41°13' E 001°44'0 0.0
2017-Jun-22 16:06N 41°13' E 001°44'0 0.0
2017-Jun-22 16:00N 41°13' E 001°44'0 0.0
2017-Jun-22 09:12N 41°13' E 001°44'0 0.0
2017-Jun-22 08:48N 41°13' E 001°44'0 0.0
2017-Jun-21 23:54N 41°13' E 001°44'0 0.0
2017-Jun-21 22:42N 41°13' E 001°44'0 0.0
2017-Jun-21 22:12N 41°13' E 001°44'0 0.0
2017-Jun-21 21:06N 41°13' E 001°44'0 0.0
2017-Jun-21 20:36N 41°13' E 001°44'0 0.0
2017-Jun-21 20:24N 41°13' E 001°44'0 0.0
2017-Jun-21 19:48N 41°13' E 001°44'0 0.0
2017-Jun-21 19:18N 41°13' E 001°44'0 0.0
2017-Jun-21 19:00N 41°13' E 001°44'0 0.0
2017-Jun-21 18:24N 41°13' E 001°44'0 0.0
2017-Jun-21 17:42N 41°13' E 001°44'0 0.0
2017-Jun-21 16:22N 41°13' E 001°44'16 8.3
2017-Jun-21 14:26N 40°57' E 001°49'2211.9
2017-Jun-21 12:38N 40°36' E 001°56'212.3
2017-Jun-21 12:27N 40°34' E 001°56'612.5
2017-Jun-21 12:00N 40°29' E 001°58'612.5
2017-Jun-21 11:30N 40°23' E 002°00'612.4
2017-Jun-21 11:00N 40°17' E 002°02'612.1
2017-Jun-21 10:29N 40°11' E 002°05'3 5.6
2017-Jun-21 10:00N 40°08' E 002°06'1 2.4
2017-Jun-21 09:30N 40°07' E 002°06'611.8
2017-Jun-21 09:00N 40°01' E 002°08'611.9
2017-Jun-21 08:30N 39°55' E 002°10'612.1
2017-Jun-21 08:00N 39°50' E 002°12'612.1
2017-Jun-21 07:30N 39°44' E 002°14'612.6
2017-Jun-21 07:00N 39°38' E 002°16'912.1
2017-Jun-21 06:15N 39°30' E 002°23'312.2
2017-Jun-21 06:00N 39°28' E 002°26'510.0
2017-Jun-21 05:30N 39°28' E 002°33'4 5.4
2017-Jun-21 04:49N 39°32' E 002°34'0 0.0
2017-Jun-21 04:10N 39°32' E 002°34'0 0.0
2017-Jun-21 03:58N 39°32' E 002°34'0 0.0
2017-Jun-21 03:28N 39°32' E 002°34'0 0.0
2017-Jun-21 02:56N 39°32' E 002°34'0 0.0
2017-Jun-21 02:28N 39°32' E 002°34'0 0.0
2017-Jun-21 01:50N 39°32' E 002°34'0 0.0
2017-Jun-21 01:22N 39°32' E 002°34'0 0.0
2017-Jun-21 00:40N 39°32' E 002°34'0 0.0
2017-Jun-21 00:22N 39°32' E 002°34'0 0.0
2017-Jun-20 23:56N 39°32' E 002°34'0 0.0
2017-Jun-20 23:28N 39°32' E 002°34'0 0.0
2017-Jun-20 22:50N 39°32' E 002°34'0 0.0
2017-Jun-20 22:20N 39°32' E 002°34'0 0.0
2017-Jun-20 21:50N 39°32' E 002°34'0 0.0
2017-Jun-20 21:20N 39°32' E 002°34'0 0.0
2017-Jun-20 20:58N 39°32' E 002°34'0 0.0
2017-Jun-20 20:26N 39°32' E 002°34'0 0.0
2017-Jun-20 19:38N 39°32' E 002°34'0 0.0
2017-Jun-20 19:26N 39°32' E 002°34'0 0.0
2017-Jun-20 18:56N 39°32' E 002°34'0 0.0
2017-Jun-20 18:20N 39°32' E 002°34'0 0.0
2017-Jun-20 17:56N 39°32' E 002°34'0 0.0
2017-Jun-20 17:28N 39°32' E 002°34'0 0.0
2017-Jun-20 16:56N 39°32' E 002°34'0 0.0
2017-Jun-20 16:16N 39°32' E 002°34'0 0.0
2017-Jun-20 15:58N 39°32' E 002°34'0 0.0
2017-Jun-20 15:29N 39°32' E 002°34'0 0.0
2017-Jun-20 14:59N 39°32' E 002°34'0 0.0
2017-Jun-20 13:56N 39°32' E 002°34'0 0.0
2017-Jun-20 13:29N 39°32' E 002°34'0 0.0
2017-Jun-20 12:56N 39°32' E 002°34'0 0.0
2017-Jun-20 12:26N 39°32' E 002°34'0 0.0
2017-Jun-20 11:53N 39°32' E 002°34'0 0.0
2017-Jun-20 11:29N 39°32' E 002°34'0 0.0
2017-Jun-20 10:35N 39°32' E 002°34'0 0.0
2017-Jun-20 10:26N 39°32' E 002°34'0 0.0
2017-Jun-20 09:59N 39°32' E 002°34'0 0.0
2017-Jun-20 09:29N 39°32' E 002°34'0 0.0
2017-Jun-20 08:56N 39°32' E 002°34'0 0.0
2017-Jun-20 08:29N 39°32' E 002°34'0 0.0
2017-Jun-20 07:47N 39°32' E 002°34'0 0.4
2017-Jun-20 07:30N 39°32' E 002°34'3 5.3
2017-Jun-20 07:00N 39°29' E 002°33'510.3
2017-Jun-20 06:30N 39°26' E 002°29'611.2
2017-Jun-20 06:00N 39°24' E 002°22'611.1
2017-Jun-20 05:30N 39°22' E 002°15'611.1
2017-Jun-20 05:00N 39°20' E 002°08'611.5
2017-Jun-20 04:30N 39°17' E 002°02'611.7
2017-Jun-20 04:00N 39°15' E 001°54'3012.1
2017-Jun-20 01:31N 39°04' E 001°19'612.5
2017-Jun-20 01:01N 38°60' E 001°12'012.7
2017-Jun-20 01:00N 38°60' E 001°12'13 0.5
2017-Jun-18 22:41N 38°48' E 001°20'312.0
2017-Jun-18 22:27N 38°47' E 001°23'2 0.3
2017-Jun-18 15:40N 38°45' E 001°26'0 1.7
2017-Jun-18 15:30N 38°45' E 001°26'3 6.0
2017-Jun-18 15:00N 38°43' E 001°22'7 2.1
2017-Jun-18 11:42N 38°40' E 001°30'0 0.0
2017-Jun-18 11:15N 38°40' E 001°30'0 0.0
2017-Jun-18 11:00N 38°40' E 001°30'0 0.2
2017-Jun-18 10:12N 38°40' E 001°30'4 9.6
2017-Jun-18 09:48N 38°39' E 001°35'3 8.1
2017-Jun-18 09:29N 38°41' E 001°33'510.0
2017-Jun-18 08:58N 38°45' E 001°28'611.8
2017-Jun-18 08:30N 38°50' E 001°26'4 0.2
2017-Jun-17 14:39N 38°54' E 001°27'1 5.9
2017-Jun-17 14:29N 38°53' E 001°26'  
Track history (hours):
 
Tides and Currents Weather Stations Pressure Air Temp Water Temp Dewpoint Dewpoint Depression Visibility Wind Speed Wind Dir Waves Ship Positions

Meamina

Last reported at 2017-Jun-26 15:55 UTC. Time now 2017-Jun-28 05:24 UTC.
Position N 41°13' E 001°44'.

Length 60 m; draft 3.2 m.

Type: Ship. MMSI: 235061022.

Date/timePositionNaut miles runAvg speedWind from/ knotsBaromVisibWave heightAir tempDewpointWater temp
2017-Jun-26 15:55N 41°13' E 001°44'0 0.0
2017-Jun-26 13:51N 41°13' E 001°44'0 0.0
2017-Jun-26 13:27N 41°13' E 001°44'0 0.0
2017-Jun-26 11:45N 41°13' E 001°44'0 0.0
2017-Jun-26 11:15N 41°13' E 001°44'0 0.0
2017-Jun-26 10:57N 41°13' E 001°44'0 0.0
2017-Jun-26 10:03N 41°13' E 001°44'0 0.0
2017-Jun-26 09:51N 41°13' E 001°44'0 0.0
2017-Jun-26 09:30N 41°13' E 001°44'0 0.0
2017-Jun-26 02:03N 41°13' E 001°44'0 0.0
2017-Jun-26 01:39N 41°13' E 001°44'0 0.0
2017-Jun-26 01:21N 41°13' E 001°44'0 0.0
2017-Jun-25 21:57N 41°13' E 001°44'0 0.0
2017-Jun-25 02:51N 41°13' E 001°44'0 0.0
2017-Jun-24 16:45N 41°13' E 001°44'0 0.0
2017-Jun-24 16:15N 41°13' E 001°44'0 0.0
2017-Jun-24 15:51N 41°13' E 001°44'0 0.0
2017-Jun-24 15:27N 41°13' E 001°44'0 0.0
2017-Jun-24 07:15N 41°13' E 001°44'0 0.0
2017-Jun-22 16:06N 41°13' E 001°44'0 0.0
2017-Jun-22 16:00N 41°13' E 001°44'0 0.0
2017-Jun-22 09:12N 41°13' E 001°44'0 0.0
2017-Jun-22 08:48N 41°13' E 001°44'0 0.0
2017-Jun-21 23:54N 41°13' E 001°44'0 0.0
2017-Jun-21 22:42N 41°13' E 001°44'0 0.0
2017-Jun-21 22:12N 41°13' E 001°44'0 0.0
2017-Jun-21 21:06N 41°13' E 001°44'0 0.0
2017-Jun-21 20:36N 41°13' E 001°44'0 0.0
2017-Jun-21 20:24N 41°13' E 001°44'0 0.0
2017-Jun-21 19:48N 41°13' E 001°44'0 0.0
2017-Jun-21 19:18N 41°13' E 001°44'0 0.0
2017-Jun-21 19:00N 41°13' E 001°44'0 0.0
2017-Jun-21 18:24N 41°13' E 001°44'0 0.0
2017-Jun-21 17:42N 41°13' E 001°44'0 0.0
2017-Jun-21 16:22N 41°13' E 001°44'16 8.3
2017-Jun-21 14:26N 40°57' E 001°49'2211.9
2017-Jun-21 12:38N 40°36' E 001°56'212.3
2017-Jun-21 12:27N 40°34' E 001°56'612.5
2017-Jun-21 12:00N 40°29' E 001°58'612.5
2017-Jun-21 11:30N 40°23' E 002°00'612.4
2017-Jun-21 11:00N 40°17' E 002°02'612.1
2017-Jun-21 10:29N 40°11' E 002°05'3 5.6
2017-Jun-21 10:00N 40°08' E 002°06'1 2.4
2017-Jun-21 09:30N 40°07' E 002°06'611.8
2017-Jun-21 09:00N 40°01' E 002°08'611.9
2017-Jun-21 08:30N 39°55' E 002°10'612.1
2017-Jun-21 08:00N 39°50' E 002°12'612.1
2017-Jun-21 07:30N 39°44' E 002°14'612.6
2017-Jun-21 07:00N 39°38' E 002°16'912.1
2017-Jun-21 06:15N 39°30' E 002°23'312.2
2017-Jun-21 06:00N 39°28' E 002°26'510.0
2017-Jun-21 05:30N 39°28' E 002°33'4 5.4
2017-Jun-21 04:49N 39°32' E 002°34'0 0.0
2017-Jun-21 04:10N 39°32' E 002°34'0 0.0
2017-Jun-21 03:58N 39°32' E 002°34'0 0.0
2017-Jun-21 03:28N 39°32' E 002°34'0 0.0
2017-Jun-21 02:56N 39°32' E 002°34'0 0.0
2017-Jun-21 02:28N 39°32' E 002°34'0 0.0
2017-Jun-21 01:50N 39°32' E 002°34'0 0.0
2017-Jun-21 01:22N 39°32' E 002°34'0 0.0
2017-Jun-21 00:40N 39°32' E 002°34'0 0.0
2017-Jun-21 00:22N 39°32' E 002°34'0 0.0
2017-Jun-20 23:56N 39°32' E 002°34'0 0.0
2017-Jun-20 23:28N 39°32' E 002°34'0 0.0
2017-Jun-20 22:50N 39°32' E 002°34'0 0.0
2017-Jun-20 22:20N 39°32' E 002°34'0 0.0
2017-Jun-20 21:50N 39°32' E 002°34'0 0.0
2017-Jun-20 21:20N 39°32' E 002°34'0 0.0
2017-Jun-20 20:58N 39°32' E 002°34'0 0.0
2017-Jun-20 20:26N 39°32' E 002°34'0 0.0
2017-Jun-20 19:38N 39°32' E 002°34'0 0.0
2017-Jun-20 19:26N 39°32' E 002°34'0 0.0
2017-Jun-20 18:56N 39°32' E 002°34'0 0.0
2017-Jun-20 18:20N 39°32' E 002°34'0 0.0
2017-Jun-20 17:56N 39°32' E 002°34'0 0.0
2017-Jun-20 17:28N 39°32' E 002°34'0 0.0
2017-Jun-20 16:56N 39°32' E 002°34'0 0.0
2017-Jun-20 16:16N 39°32' E 002°34'0 0.0
2017-Jun-20 15:58N 39°32' E 002°34'0 0.0
2017-Jun-20 15:29N 39°32' E 002°34'0 0.0
2017-Jun-20 14:59N 39°32' E 002°34'0 0.0
2017-Jun-20 13:56N 39°32' E 002°34'0 0.0
2017-Jun-20 13:29N 39°32' E 002°34'0 0.0
2017-Jun-20 12:56N 39°32' E 002°34'0 0.0
2017-Jun-20 12:26N 39°32' E 002°34'0 0.0
2017-Jun-20 11:53N 39°32' E 002°34'0 0.0
2017-Jun-20 11:29N 39°32' E 002°34'0 0.0
2017-Jun-20 10:35N 39°32' E 002°34'0 0.0
2017-Jun-20 10:26N 39°32' E 002°34'0 0.0
2017-Jun-20 09:59N 39°32' E 002°34'0 0.0
2017-Jun-20 09:29N 39°32' E 002°34'0 0.0
2017-Jun-20 08:56N 39°32' E 002°34'0 0.0
2017-Jun-20 08:29N 39°32' E 002°34'0 0.0
2017-Jun-20 07:47N 39°32' E 002°34'0 0.4
2017-Jun-20 07:30N 39°32' E 002°34'3 5.3
2017-Jun-20 07:00N 39°29' E 002°33'510.3
2017-Jun-20 06:30N 39°26' E 002°29'611.2
2017-Jun-20 06:00N 39°24' E 002°22'611.1
2017-Jun-20 05:30N 39°22' E 002°15'611.1
2017-Jun-20 05:00N 39°20' E 002°08'611.5
2017-Jun-20 04:30N 39°17' E 002°02'611.7
2017-Jun-20 04:00N 39°15' E 001°54'3012.1
2017-Jun-20 01:31N 39°04' E 001°19'612.5
2017-Jun-20 01:01N 38°60' E 001°12'012.7
2017-Jun-20 01:00N 38°60' E 001°12'13 0.5
2017-Jun-18 22:41N 38°48' E 001°20'312.0
2017-Jun-18 22:27N 38°47' E 001°23'2 0.3
2017-Jun-18 15:40N 38°45' E 001°26'0 1.7
2017-Jun-18 15:30N 38°45' E 001°26'3 6.0
2017-Jun-18 15:00N 38°43' E 001°22'7 2.1
2017-Jun-18 11:42N 38°40' E 001°30'0 0.0
2017-Jun-18 11:15N 38°40' E 001°30'0 0.0
2017-Jun-18 11:00N 38°40' E 001°30'0 0.2
2017-Jun-18 10:12N 38°40' E 001°30'4 9.6
2017-Jun-18 09:48N 38°39' E 001°35'3 8.1
2017-Jun-18 09:29N 38°41' E 001°33'510.0
2017-Jun-18 08:58N 38°45' E 001°28'611.8
2017-Jun-18 08:30N 38°50' E 001°26'4 0.2
2017-Jun-17 14:39N 38°54' E 001°27'1 5.9
2017-Jun-17 14:29N 38°53' E 001°26'  

Dump ship's entire track history